createdAt,value
2023-02-14T00:08:02.112Z,28.23
2023-02-14T00:18:05.493Z,31.27
2023-02-14T00:28:07.433Z,33.53
2023-02-14T00:38:10.723Z,31.10
2023-02-14T00:48:12.681Z,31.42
2023-02-14T00:58:16.001Z,35.10
2023-02-14T01:08:18.014Z,35.75
2023-02-14T01:18:21.347Z,33.97
2023-02-14T01:28:23.320Z,32.65
2023-02-14T01:38:26.677Z,34.42
2023-02-14T01:48:28.696Z,35.30
2023-02-14T01:58:34.562Z,32.80
2023-02-14T02:08:41.945Z,28.35
2023-02-14T02:18:58.377Z,32.17
2023-02-14T02:29:35.898Z,33.15
2023-02-14T02:39:54.144Z,31.00
2023-02-14T02:50:03.623Z,30.88
2023-02-14T03:00:09.589Z,29.15
2023-02-14T03:10:14.072Z,31.10
2023-02-14T03:20:23.361Z,30.90
2023-02-14T03:30:32.705Z,29.05
2023-02-14T03:40:41.713Z,28.33
2023-02-14T03:50:47.830Z,30.00
2023-02-14T04:00:54.847Z,33.35
2023-02-14T04:10:59.149Z,30.52
2023-02-14T04:21:02.719Z,33.03
2023-02-14T04:31:05.728Z,32.53
2023-02-14T04:41:09.120Z,30.83
2023-02-14T04:51:11.070Z,31.15
2023-02-14T05:01:14.459Z,28.88
2023-02-14T05:11:16.385Z,31.73
2023-02-14T05:21:19.956Z,31.88
2023-02-14T05:31:22.006Z,32.58
2023-02-14T05:41:25.501Z,29.73
2023-02-14T05:51:27.438Z,29.52
2023-02-14T06:01:31.036Z,29.10
2023-02-14T06:11:33.033Z,31.70
2023-02-14T06:21:36.634Z,30.98
2023-02-14T06:31:38.702Z,29.50
2023-02-14T06:41:42.055Z,31.88
2023-02-14T06:51:44.054Z,31.85
2023-02-14T07:01:47.516Z,28.50
2023-02-14T07:11:49.480Z,31.52
2023-02-14T07:21:52.819Z,32.00
2023-02-14T07:31:54.906Z,30.02
2023-02-14T07:41:58.329Z,30.98
2023-02-14T07:52:00.538Z,32.92
2023-02-14T08:02:03.962Z,31.88
2023-02-14T08:12:06.318Z,31.52
2023-02-14T08:22:09.839Z,34.28
2023-02-14T08:32:11.926Z,34.95
2023-02-14T08:42:15.332Z,36.58
2023-02-14T08:52:17.286Z,35.42
2023-02-14T09:02:20.576Z,35.00
2023-02-14T09:12:22.668Z,35.38
2023-02-14T09:22:26.057Z,30.52
2023-02-14T09:32:28.159Z,31.42
2023-02-14T09:42:51.550Z,31.77
2023-02-14T09:52:57.257Z,30.55
2023-02-14T10:03:15.931Z,29.30
2023-02-14T10:13:26.990Z,27.50
2023-02-14T10:23:34.999Z,21.58
2023-02-14T10:43:51.563Z,21.38
2023-02-14T10:54:04.391Z,18.67
2023-02-14T11:04:09.472Z,18.73
2023-02-14T11:14:26.922Z,19.90
2023-02-14T11:24:33.781Z,19.40
2023-02-14T11:34:38.603Z,16.95
2023-02-14T11:44:55.048Z,13.90
2023-02-14T11:54:58.401Z,13.93
2023-02-14T12:05:05.219Z,13.90
2023-02-14T12:15:25.833Z,14.05
2023-02-14T12:25:39.813Z,13.63
2023-02-14T12:35:52.247Z,14.50
2023-02-14T12:46:21.599Z,12.73
2023-02-14T12:56:36.237Z,10.68
2023-02-14T13:06:43.962Z,9.27
2023-02-14T13:16:53.556Z,9.63
2023-02-14T13:27:00.379Z,9.63
2023-02-14T13:37:07.206Z,9.20
2023-02-14T13:47:17.502Z,8.02
2023-02-14T13:57:31.521Z,8.90
2023-02-14T14:07:35.118Z,6.03
2023-02-14T14:17:38.644Z,7.63
2023-02-14T14:27:44.561Z,8.48
2023-02-14T14:37:49.156Z,6.95
2023-02-14T14:47:54.389Z,7.45
2023-02-14T14:57:58.324Z,8.18
2023-02-14T15:08:15.719Z,7.00
2023-02-14T15:18:18.339Z,7.30
2023-02-14T15:28:33.244Z,9.52
2023-02-14T15:38:38.371Z,8.75
2023-02-14T15:48:42.251Z,9.38
2023-02-14T15:58:45.067Z,10.82
2023-02-14T16:08:54.939Z,14.02
2023-02-14T16:29:02.465Z,11.90
2023-02-14T16:39:05.498Z,12.43
2023-02-14T16:49:08.919Z,11.90
2023-02-14T16:59:10.944Z,9.93
2023-02-14T17:09:17.204Z,8.65
2023-02-14T17:19:19.274Z,9.88
2023-02-14T17:29:22.662Z,11.93
2023-02-14T17:39:24.614Z,21.33
2023-02-14T17:49:28.263Z,18.98
2023-02-14T17:59:30.572Z,21.17
2023-02-14T18:09:33.928Z,20.75
2023-02-14T18:19:35.862Z,19.42
2023-02-14T18:29:39.246Z,21.77
2023-02-14T18:39:41.219Z,19.05
2023-02-14T18:49:44.567Z,23.42
2023-02-14T19:22:00.802Z,23.98
2023-02-14T19:32:02.801Z,25.58
2023-02-14T19:42:06.248Z,26.23
2023-02-14T20:03:13.064Z,31.95
2023-02-14T20:13:15.159Z,30.33
2023-02-14T20:23:18.494Z,30.40
2023-02-14T20:33:23.216Z,31.08
2023-02-14T20:43:26.534Z,31.40
2023-02-14T20:53:33.216Z,28.85
2023-02-14T21:03:37.111Z,38.60
2023-02-14T21:13:39.697Z,29.23
2023-02-14T21:23:43.011Z,29.58
2023-02-14T21:33:45.001Z,25.98
2023-02-14T21:43:51.700Z,28.52
2023-02-14T21:53:54.420Z,25.73
2023-02-14T22:03:58.362Z,28.08
2023-02-14T22:14:00.618Z,28.88
2023-02-14T22:24:04.576Z,27.05
2023-02-14T22:34:08.102Z,25.25
2023-02-14T22:44:12.758Z,25.35
2023-02-14T22:54:15.715Z,24.83
2023-02-14T23:04:21.036Z,26.92
2023-02-14T23:14:22.944Z,27.38
2023-02-14T23:24:26.251Z,24.30
2023-02-14T23:34:29.753Z,24.70
2023-02-14T23:44:33.826Z,23.55
2023-02-14T23:54:36.365Z,24.77
